sensor_id;sensor_type;location;lat;lon;timestamp;pressure;altitude;pressure_sealevel;temperature;humidity
21828;BME280;11076;47.942;11.804;2023-04-06T00:03:48;94517.19;;;-3.18;80.78
21828;BME280;11076;47.942;11.804;2023-04-06T00:08:50;94514.13;;;-3.23;81.03
21828;BME280;11076;47.942;11.804;2023-04-06T00:13:53;94515.78;;;-3.22;81.55
21828;BME280;11076;47.942;11.804;2023-04-06T00:18:55;94511.34;;;-3.31;82.11
21828;BME280;11076;47.942;11.804;2023-04-06T00:23:58;94507.75;;;-3.30;82.41
21828;BME280;11076;47.942;11.804;2023-04-06T00:29:00;94510.53;;;-3.32;82.13
21828;BME280;11076;47.942;11.804;2023-04-06T00:34:03;94510.78;;;-3.35;82.52
21828;BME280;11076;47.942;11.804;2023-04-06T00:39:06;94512.44;;;-3.34;82.61
21828;BME280;11076;47.942;11.804;2023-04-06T00:44:09;94505.25;;;-3.42;83.13
21828;BME280;11076;47.942;11.804;2023-04-06T00:49:12;94501.13;;;-3.44;83.95
21828;BME280;11076;47.942;11.804;2023-04-06T00:54:14;94499.16;;;-3.52;83.93
21828;BME280;11076;47.942;11.804;2023-04-06T00:59:18;94501.06;;;-3.54;84.66
21828;BME280;11076;47.942;11.804;2023-04-06T01:04:21;94500.50;;;-3.57;84.48
21828;BME280;11076;47.942;11.804;2023-04-06T01:09:28;94508.75;;;-3.52;84.54
21828;BME280;11076;47.942;11.804;2023-04-06T01:14:39;94507.69;;;-3.50;85.68
21828;BME280;11076;47.942;11.804;2023-04-06T01:19:42;94497.34;;;-3.51;84.85
21828;BME280;11076;47.942;11.804;2023-04-06T01:24:51;94499.69;;;-3.58;86.47
21828;BME280;11076;47.942;11.804;2023-04-06T01:30:17;94508.47;;;-3.59;87.11
21828;BME280;11076;47.942;11.804;2023-04-06T01:35:27;94495.78;;;-3.64;87.67
21828;BME280;11076;47.942;11.804;2023-04-06T01:40:40;94502.09;;;-3.66;87.35
21828;BME280;11076;47.942;11.804;2023-04-06T01:45:43;94488.13;;;-3.55;86.83
21828;BME280;11076;47.942;11.804;2023-04-06T01:50:54;94485.44;;;-3.34;86.76
21828;BME280;11076;47.942;11.804;2023-04-06T01:56:02;94477.97;;;-2.98;86.04
21828;BME280;11076;47.942;11.804;2023-04-06T02:01:21;94475.81;;;-2.93;85.57
21828;BME280;11076;47.942;11.804;2023-04-06T02:06:28;94478.41;;;-2.93;85.50
21828;BME280;11076;47.942;11.804;2023-04-06T02:11:33;94475.25;;;-2.87;85.39
21828;BME280;11076;47.942;11.804;2023-04-06T02:16:36;94481.63;;;-2.80;84.94
21828;BME280;11076;47.942;11.804;2023-04-06T02:21:39;94484.09;;;-2.88;84.89
21828;BME280;11076;47.942;11.804;2023-04-06T02:26:41;94482.41;;;-2.89;84.51
21828;BME280;11076;47.942;11.804;2023-04-06T02:31:44;94471.69;;;-2.86;84.45
21828;BME280;11076;47.942;11.804;2023-04-06T02:36:47;94474.47;;;-2.78;84.37
21828;BME280;11076;47.942;11.804;2023-04-06T02:41:49;94466.19;;;-2.83;84.13
21828;BME280;11076;47.942;11.804;2023-04-06T02:46:56;94466.31;;;-2.85;84.10
21828;BME280;11076;47.942;11.804;2023-04-06T02:52:00;94467.97;;;-2.93;83.95
21828;BME280;11076;47.942;11.804;2023-04-06T02:57:07;94467.13;;;-3.04;84.23
21828;BME280;11076;47.942;11.804;2023-04-06T03:02:14;94473.41;;;-3.16;84.34
21828;BME280;11076;47.942;11.804;2023-04-06T03:07:18;94478.63;;;-3.26;84.59
21828;BME280;11076;47.942;11.804;2023-04-06T03:12:20;94474.38;;;-3.17;85.25
21828;BME280;11076;47.942;11.804;2023-04-06T03:17:43;94474.09;;;-3.14;84.52
21828;BME280;11076;47.942;11.804;2023-04-06T03:22:56;94471.78;;;-3.07;84.86
21828;BME280;11076;47.942;11.804;2023-04-06T03:28:03;94474.25;;;-3.15;84.83
21828;BME280;11076;47.942;11.804;2023-04-06T03:33:09;94475.34;;;-3.18;84.60
21828;BME280;11076;47.942;11.804;2023-04-06T03:38:22;94477.22;;;-3.30;85.12
21828;BME280;11076;47.942;11.804;2023-04-06T03:43:24;94482.66;;;-3.43;85.75
21828;BME280;11076;47.942;11.804;2023-04-06T03:48:27;94488.69;;;-3.52;85.41
21828;BME280;11076;47.942;11.804;2023-04-06T03:53:29;94494.44;;;-3.58;86.05
21828;BME280;11076;47.942;11.804;2023-04-06T03:58:32;94493.28;;;-3.44;85.54
21828;BME280;11076;47.942;11.804;2023-04-06T04:03:34;94495.03;;;-3.45;86.18
21828;BME280;11076;47.942;11.804;2023-04-06T04:08:37;94490.63;;;-3.54;86.84
21828;BME280;11076;47.942;11.804;2023-04-06T04:13:39;94494.88;;;-3.53;86.04
21828;BME280;11076;47.942;11.804;2023-04-06T04:18:43;94499.63;;;-3.68;86.73
21828;BME280;11076;47.942;11.804;2023-04-06T04:23:46;94504.78;;;-3.77;86.63
21828;BME280;11076;47.942;11.804;2023-04-06T04:28:48;94507.22;;;-3.86;87.26
21828;BME280;11076;47.942;11.804;2023-04-06T04:33:51;94515.59;;;-3.82;87.56
21828;BME280;11076;47.942;11.804;2023-04-06T04:39:00;94510.09;;;-3.89;86.96
21828;BME280;11076;47.942;11.804;2023-04-06T04:44:07;94516.00;;;-3.87;87.51
21828;BME280;11076;47.942;11.804;2023-04-06T04:49:09;94514.66;;;-3.81;87.60
21828;BME280;11076;47.942;11.804;2023-04-06T04:54:14;94518.03;;;-3.69;87.03
21828;BME280;11076;47.942;11.804;2023-04-06T04:59:17;94513.69;;;-3.59;86.84
21828;BME280;11076;47.942;11.804;2023-04-06T05:04:27;94516.00;;;-3.35;86.80
21828;BME280;11076;47.942;11.804;2023-04-06T05:09:34;94508.97;;;-3.04;86.24
21828;BME280;11076;47.942;11.804;2023-04-06T05:14:36;94500.03;;;-1.17;82.33
21828;BME280;11076;47.942;11.804;2023-04-06T05:19:45;94494.31;;;1.27;77.04
21828;BME280;11076;47.942;11.804;2023-04-06T05:24:52;94501.66;;;1.50;76.16
21828;BME280;11076;47.942;11.804;2023-04-06T05:29:55;94502.00;;;1.63;76.72
21828;BME280;11076;47.942;11.804;2023-04-06T05:35:01;94505.09;;;0.99;76.18
21828;BME280;11076;47.942;11.804;2023-04-06T05:40:17;94513.31;;;2.31;72.16
21828;BME280;11076;47.942;11.804;2023-04-06T05:45:20;94510.63;;;2.64;66.37
21828;BME280;11076;47.942;11.804;2023-04-06T05:50:28;94510.09;;;2.93;67.68
21828;BME280;11076;47.942;11.804;2023-04-06T05:55:32;94505.72;;;3.87;67.81
21828;BME280;11076;47.942;11.804;2023-04-06T06:00:44;94512.91;;;2.83;68.09
21828;BME280;11076;47.942;11.804;2023-04-06T06:05:50;94505.59;;;4.12;66.69
21828;BME280;11076;47.942;11.804;2023-04-06T06:11:01;94508.94;;;4.67;65.35
21828;BME280;11076;47.942;11.804;2023-04-06T06:16:05;94505.75;;;3.48;67.51
21828;BME280;11076;47.942;11.804;2023-04-06T06:21:12;94505.97;;;2.82;67.96
21828;BME280;11076;47.942;11.804;2023-04-06T06:26:16;94514.94;;;2.65;68.28
21828;BME280;11076;47.942;11.804;2023-04-06T06:31:19;94514.44;;;2.45;68.58
21828;BME280;11076;47.942;11.804;2023-04-06T06:36:25;94516.91;;;2.46;68.50
21828;BME280;11076;47.942;11.804;2023-04-06T06:41:28;94527.31;;;2.56;69.66
21828;BME280;11076;47.942;11.804;2023-04-06T06:46:30;94523.78;;;2.96;70.09
21828;BME280;11076;47.942;11.804;2023-04-06T06:51:33;94520.31;;;3.44;69.54
21828;BME280;11076;47.942;11.804;2023-04-06T06:56:36;94524.09;;;3.49;68.71
21828;BME280;11076;47.942;11.804;2023-04-06T07:01:41;94524.78;;;3.83;67.75
21828;BME280;11076;47.942;11.804;2023-04-06T07:06:44;94530.75;;;3.76;63.35
21828;BME280;11076;47.942;11.804;2023-04-06T07:11:46;94530.56;;;4.09;60.54
21828;BME280;11076;47.942;11.804;2023-04-06T07:16:49;94529.16;;;4.45;61.23
21828;BME280;11076;47.942;11.804;2023-04-06T07:21:52;94519.41;;;4.98;60.41
21828;BME280;11076;47.942;11.804;2023-04-06T07:26:55;94522.91;;;5.13;59.17
21828;BME280;11076;47.942;11.804;2023-04-06T07:31:59;94515.47;;;5.09;60.04
21828;BME280;11076;47.942;11.804;2023-04-06T07:37:02;94527.53;;;4.96;58.86
21828;BME280;11076;47.942;11.804;2023-04-06T07:42:05;94530.97;;;4.82;57.64
21828;BME280;11076;47.942;11.804;2023-04-06T07:47:08;94534.75;;;4.88;56.73
21828;BME280;11076;47.942;11.804;2023-04-06T07:52:12;94538.78;;;4.98;56.61
21828;BME280;11076;47.942;11.804;2023-04-06T07:57:16;94532.22;;;5.24;54.02
21828;BME280;11076;47.942;11.804;2023-04-06T08:02:18;94524.44;;;5.67;53.33
21828;BME280;11076;47.942;11.804;2023-04-06T08:07:21;94516.63;;;5.81;54.98
21828;BME280;11076;47.942;11.804;2023-04-06T08:12:23;94522.41;;;5.69;53.77
21828;BME280;11076;47.942;11.804;2023-04-06T08:17:25;94520.28;;;6.31;53.30
21828;BME280;11076;47.942;11.804;2023-04-06T08:22:31;94518.94;;;6.42;52.62
21828;BME280;11076;47.942;11.804;2023-04-06T08:27:33;94521.28;;;6.51;50.58
21828;BME280;11076;47.942;11.804;2023-04-06T08:32:36;94517.84;;;6.79;51.29
21828;BME280;11076;47.942;11.804;2023-04-06T08:37:38;94512.25;;;6.74;51.33
21828;BME280;11076;47.942;11.804;2023-04-06T08:42:44;94525.66;;;6.87;52.40
21828;BME280;11076;47.942;11.804;2023-04-06T08:47:52;94524.19;;;7.06;52.71
21828;BME280;11076;47.942;11.804;2023-04-06T08:52:55;94517.25;;;7.12;50.76
21828;BME280;11076;47.942;11.804;2023-04-06T08:57:59;94518.44;;;7.37;51.06
21828;BME280;11076;47.942;11.804;2023-04-06T09:03:03;94522.56;;;6.84;50.92
21828;BME280;11076;47.942;11.804;2023-04-06T09:08:05;94518.94;;;7.20;48.75
21828;BME280;11076;47.942;11.804;2023-04-06T09:13:08;94512.63;;;7.21;48.79
21828;BME280;11076;47.942;11.804;2023-04-06T09:18:11;94516.19;;;7.34;47.91
21828;BME280;11076;47.942;11.804;2023-04-06T09:23:19;94510.91;;;7.48;47.00
21828;BME280;11076;47.942;11.804;2023-04-06T09:28:22;94505.56;;;7.41;47.66
21828;BME280;11076;47.942;11.804;2023-04-06T09:33:24;94512.78;;;7.54;45.21
21828;BME280;11076;47.942;11.804;2023-04-06T09:38:27;94509.09;;;7.48;45.85
21828;BME280;11076;47.942;11.804;2023-04-06T09:43:29;94496.78;;;7.82;46.11
21828;BME280;11076;47.942;11.804;2023-04-06T09:48:33;94493.72;;;7.44;45.23
21828;BME280;11076;47.942;11.804;2023-04-06T09:53:39;94499.09;;;7.57;45.27
21828;BME280;11076;47.942;11.804;2023-04-06T09:58:45;94496.88;;;8.22;43.69
21828;BME280;11076;47.942;11.804;2023-04-06T10:03:58;94482.84;;;9.80;43.08
21828;BME280;11076;47.942;11.804;2023-04-06T10:09:04;94486.41;;;10.76;40.77
21828;BME280;11076;47.942;11.804;2023-04-06T10:14:09;94476.25;;;9.83;38.82
21828;BME280;11076;47.942;11.804;2023-04-06T10:19:18;94469.88;;;9.19;38.51
21828;BME280;11076;47.942;11.804;2023-04-06T10:24:22;94476.81;;;9.40;39.55
21828;BME280;11076;47.942;11.804;2023-04-06T10:29:25;94478.31;;;9.15;38.16
21828;BME280;11076;47.942;11.804;2023-04-06T10:34:34;94480.94;;;9.94;40.91
21828;BME280;11076;47.942;11.804;2023-04-06T10:39:46;94465.69;;;10.40;41.03
21828;BME280;11076;47.942;11.804;2023-04-06T10:44:49;94455.56;;;10.48;37.32
21828;BME280;11076;47.942;11.804;2023-04-06T10:49:52;94462.00;;;10.41;37.68
21828;BME280;11076;47.942;11.804;2023-04-06T10:54:54;94455.88;;;10.90;37.83
21828;BME280;11076;47.942;11.804;2023-04-06T10:59:58;94451.56;;;11.88;37.74
21828;BME280;11076;47.942;11.804;2023-04-06T11:05:01;94446.22;;;11.70;32.92
21828;BME280;11076;47.942;11.804;2023-04-06T11:10:03;94444.25;;;11.22;33.84
21828;BME280;11076;47.942;11.804;2023-04-06T11:15:15;94445.88;;;11.04;34.15
21828;BME280;11076;47.942;11.804;2023-04-06T11:20:17;94430.44;;;11.99;34.70
21828;BME280;11076;47.942;11.804;2023-04-06T11:25:21;94432.09;;;12.11;33.86
21828;BME280;11076;47.942;11.804;2023-04-06T11:30:24;94423.44;;;12.28;32.33
21828;BME280;11076;47.942;11.804;2023-04-06T11:35:27;94416.34;;;10.92;33.05
21828;BME280;11076;47.942;11.804;2023-04-06T11:40:29;94417.44;;;11.28;34.19
21828;BME280;11076;47.942;11.804;2023-04-06T11:45:42;94429.63;;;11.98;33.54
21828;BME280;11076;47.942;11.804;2023-04-06T11:50:48;94418.31;;;11.96;33.67
21828;BME280;11076;47.942;11.804;2023-04-06T11:55:51;94416.53;;;10.47;34.08
21828;BME280;11076;47.942;11.804;2023-04-06T12:00:53;94409.25;;;9.91;34.84
21828;BME280;11076;47.942;11.804;2023-04-06T12:06:05;94412.25;;;9.63;35.36
21828;BME280;11076;47.942;11.804;2023-04-06T12:11:07;94409.81;;;9.54;34.09
21828;BME280;11076;47.942;11.804;2023-04-06T12:16:09;94408.13;;;9.67;34.75
21828;BME280;11076;47.942;11.804;2023-04-06T12:21:12;94401.94;;;10.11;34.84
21828;BME280;11076;47.942;11.804;2023-04-06T12:26:14;94399.09;;;10.06;34.03
21828;BME280;11076;47.942;11.804;2023-04-06T12:31:20;94386.00;;;10.80;33.70
21828;BME280;11076;47.942;11.804;2023-04-06T12:36:24;94389.59;;;11.66;33.71
21828;BME280;11076;47.942;11.804;2023-04-06T12:41:30;94371.00;;;12.32;33.34
21828;BME280;11076;47.942;11.804;2023-04-06T12:46:32;94375.41;;;11.47;33.11
21828;BME280;11076;47.942;11.804;2023-04-06T12:51:35;94367.88;;;10.82;33.15
21828;BME280;11076;47.942;11.804;2023-04-06T12:56:37;94374.31;;;9.92;32.25
21828;BME280;11076;47.942;11.804;2023-04-06T13:01:40;94377.84;;;10.18;32.98
21828;BME280;11076;47.942;11.804;2023-04-06T13:06:42;94374.88;;;10.01;34.09
21828;BME280;11076;47.942;11.804;2023-04-06T13:11:44;94377.44;;;10.14;34.37
21828;BME280;11076;47.942;11.804;2023-04-06T13:16:48;94373.25;;;10.32;33.84
21828;BME280;11076;47.942;11.804;2023-04-06T13:21:50;94362.41;;;10.95;32.79
21828;BME280;11076;47.942;11.804;2023-04-06T13:26:53;94352.84;;;11.06;33.58
21828;BME280;11076;47.942;11.804;2023-04-06T13:31:55;94351.88;;;11.01;33.65
21828;BME280;11076;47.942;11.804;2023-04-06T13:36:58;94351.53;;;10.72;33.77
21828;BME280;11076;47.942;11.804;2023-04-06T13:42:00;94347.34;;;10.32;34.18
21828;BME280;11076;47.942;11.804;2023-04-06T13:47:04;94352.22;;;9.79;34.41
21828;BME280;11076;47.942;11.804;2023-04-06T13:52:07;94347.72;;;9.72;34.46
21828;BME280;11076;47.942;11.804;2023-04-06T13:57:12;94341.50;;;9.85;35.42
21828;BME280;11076;47.942;11.804;2023-04-06T14:02:14;94335.94;;;11.06;33.75
21828;BME280;11076;47.942;11.804;2023-04-06T14:07:17;94333.44;;;11.11;31.80
21828;BME280;11076;47.942;11.804;2023-04-06T14:12:19;94335.00;;;11.19;32.63
21828;BME280;11076;47.942;11.804;2023-04-06T14:17:21;94330.59;;;10.87;33.56
21828;BME280;11076;47.942;11.804;2023-04-06T14:22:24;94324.56;;;11.29;34.26
21828;BME280;11076;47.942;11.804;2023-04-06T14:27:26;94320.63;;;11.50;33.13
21828;BME280;11076;47.942;11.804;2023-04-06T14:32:28;94317.69;;;11.70;33.53
21828;BME280;11076;47.942;11.804;2023-04-06T14:37:31;94316.25;;;11.67;33.11
21828;BME280;11076;47.942;11.804;2023-04-06T14:42:35;94311.31;;;10.60;33.11
21828;BME280;11076;47.942;11.804;2023-04-06T14:47:37;94312.63;;;10.01;34.55
21828;BME280;11076;47.942;11.804;2023-04-06T14:52:40;94316.47;;;9.80;33.97
21828;BME280;11076;47.942;11.804;2023-04-06T14:57:42;94313.63;;;9.74;35.66
21828;BME280;11076;47.942;11.804;2023-04-06T15:02:44;94314.97;;;9.90;36.06
21828;BME280;11076;47.942;11.804;2023-04-06T15:07:47;94306.31;;;10.70;34.74
21828;BME280;11076;47.942;11.804;2023-04-06T15:12:49;94310.97;;;10.93;34.15
21828;BME280;11076;47.942;11.804;2023-04-06T15:17:52;94311.41;;;10.53;33.21
21828;BME280;11076;47.942;11.804;2023-04-06T15:22:54;94304.56;;;10.76;34.34
21828;BME280;11076;47.942;11.804;2023-04-06T15:27:57;94298.03;;;10.72;33.86
21828;BME280;11076;47.942;11.804;2023-04-06T15:33:01;94307.63;;;10.61;34.83
21828;BME280;11076;47.942;11.804;2023-04-06T15:38:03;94311.06;;;9.93;35.16
21828;BME280;11076;47.942;11.804;2023-04-06T15:43:05;94310.66;;;9.89;36.06
21828;BME280;11076;47.942;11.804;2023-04-06T15:48:08;94304.19;;;10.04;35.68
21828;BME280;11076;47.942;11.804;2023-04-06T15:53:10;94312.63;;;10.01;36.77
21828;BME280;11076;47.942;11.804;2023-04-06T15:58:13;94309.13;;;10.32;36.33
21828;BME280;11076;47.942;11.804;2023-04-06T16:03:16;94304.94;;;10.43;35.26
21828;BME280;11076;47.942;11.804;2023-04-06T16:08:18;94298.03;;;10.03;33.85
21828;BME280;11076;47.942;11.804;2023-04-06T16:13:21;94304.41;;;9.70;35.90
21828;BME280;11076;47.942;11.804;2023-04-06T16:18:24;94309.59;;;9.65;36.19
21828;BME280;11076;47.942;11.804;2023-04-06T16:23:27;94306.28;;;9.70;35.95
21828;BME280;11076;47.942;11.804;2023-04-06T16:28:29;94302.06;;;9.55;35.45
21828;BME280;11076;47.942;11.804;2023-04-06T16:33:32;94303.78;;;9.43;36.15
21828;BME280;11076;47.942;11.804;2023-04-06T16:38:34;94307.28;;;9.37;36.71
21828;BME280;11076;47.942;11.804;2023-04-06T16:43:37;94304.06;;;9.22;36.70
21828;BME280;11076;47.942;11.804;2023-04-06T16:48:39;94311.56;;;9.00;36.97
21828;BME280;11076;47.942;11.804;2023-04-06T16:53:42;94315.72;;;8.75;38.79
21828;BME280;11076;47.942;11.804;2023-04-06T16:58:44;94320.50;;;8.47;39.94
21828;BME280;11076;47.942;11.804;2023-04-06T17:03:47;94322.53;;;8.11;40.25
21828;BME280;11076;47.942;11.804;2023-04-06T17:08:50;94327.22;;;7.83;40.13
21828;BME280;11076;47.942;11.804;2023-04-06T17:13:53;94322.50;;;7.58;40.04
21828;BME280;11076;47.942;11.804;2023-04-06T17:18:56;94318.72;;;7.26;40.62
21828;BME280;11076;47.942;11.804;2023-04-06T17:23:58;94318.56;;;6.86;40.88
21828;BME280;11076;47.942;11.804;2023-04-06T17:29:01;94327.13;;;6.46;42.26
21828;BME280;11076;47.942;11.804;2023-04-06T17:34:03;94337.47;;;6.06;43.22
21828;BME280;11076;47.942;11.804;2023-04-06T17:39:05;94335.06;;;5.90;43.84
21828;BME280;11076;47.942;11.804;2023-04-06T17:44:08;94344.28;;;5.51;44.99
21828;BME280;11076;47.942;11.804;2023-04-06T17:49:10;94342.69;;;5.13;45.86
21828;BME280;11076;47.942;11.804;2023-04-06T17:54:14;94346.28;;;4.76;47.12
21828;BME280;11076;47.942;11.804;2023-04-06T17:59:18;94356.63;;;4.56;47.91
21828;BME280;11076;47.942;11.804;2023-04-06T18:04:21;94359.06;;;4.43;48.18
21828;BME280;11076;47.942;11.804;2023-04-06T18:09:23;94367.91;;;4.20;49.12
21828;BME280;11076;47.942;11.804;2023-04-06T18:14:30;94374.41;;;3.94;50.97
21828;BME280;11076;47.942;11.804;2023-04-06T18:19:33;94375.53;;;3.77;51.64
21828;BME280;11076;47.942;11.804;2023-04-06T18:24:35;94388.34;;;3.65;51.41
21828;BME280;11076;47.942;11.804;2023-04-06T18:29:42;94385.53;;;3.44;51.35
21828;BME280;11076;47.942;11.804;2023-04-06T18:34:46;94394.84;;;3.31;52.03
21828;BME280;11076;47.942;11.804;2023-04-06T18:39:49;94390.00;;;3.12;52.29
21828;BME280;11076;47.942;11.804;2023-04-06T18:44:51;94399.66;;;2.96;52.86
21828;BME280;11076;47.942;11.804;2023-04-06T18:49:54;94396.38;;;2.86;53.83
21828;BME280;11076;47.942;11.804;2023-04-06T18:54:56;94404.50;;;2.85;55.19
21828;BME280;11076;47.942;11.804;2023-04-06T18:59:59;94406.00;;;2.79;55.19
21828;BME280;11076;47.942;11.804;2023-04-06T19:05:02;94411.03;;;2.49;55.23
21828;BME280;11076;47.942;11.804;2023-04-06T19:10:05;94405.78;;;2.33;55.79
21828;BME280;11076;47.942;11.804;2023-04-06T19:15:08;94414.53;;;2.25;56.74
21828;BME280;11076;47.942;11.804;2023-04-06T19:20:11;94421.63;;;2.16;57.32
21828;BME280;11076;47.942;11.804;2023-04-06T19:25:14;94431.34;;;2.16;57.00
21828;BME280;11076;47.942;11.804;2023-04-06T19:30:16;94429.22;;;2.03;57.29
21828;BME280;11076;47.942;11.804;2023-04-06T19:35:21;94425.91;;;1.93;57.65
21828;BME280;11076;47.942;11.804;2023-04-06T19:40:23;94429.72;;;1.82;58.16
21828;BME280;11076;47.942;11.804;2023-04-06T19:45:26;94424.28;;;1.75;59.05
21828;BME280;11076;47.942;11.804;2023-04-06T19:50:30;94435.13;;;1.72;60.33
21828;BME280;11076;47.942;11.804;2023-04-06T19:55:34;94435.44;;;1.61;60.95
21828;BME280;11076;47.942;11.804;2023-04-06T20:00:37;94432.47;;;1.48;61.03
21828;BME280;11076;47.942;11.804;2023-04-06T20:05:40;94439.53;;;1.39;61.63
21828;BME280;11076;47.942;11.804;2023-04-06T20:10:42;94446.09;;;1.35;62.06
21828;BME280;11076;47.942;11.804;2023-04-06T20:15:44;94437.22;;;1.28;63.11
21828;BME280;11076;47.942;11.804;2023-04-06T20:20:47;94438.84;;;1.29;63.69
21828;BME280;11076;47.942;11.804;2023-04-06T20:25:50;94431.81;;;1.37;64.29
21828;BME280;11076;47.942;11.804;2023-04-06T20:30:53;94433.50;;;1.71;64.42
21828;BME280;11076;47.942;11.804;2023-04-06T20:35:59;94427.56;;;1.94;65.11
21828;BME280;11076;47.942;11.804;2023-04-06T20:41:02;94432.03;;;2.02;64.39
21828;BME280;11076;47.942;11.804;2023-04-06T20:46:05;94426.09;;;1.99;64.21
21828;BME280;11076;47.942;11.804;2023-04-06T20:51:16;94416.53;;;1.90;64.69
21828;BME280;11076;47.942;11.804;2023-04-06T20:56:20;94414.06;;;1.72;64.41
21828;BME280;11076;47.942;11.804;2023-04-06T21:01:23;94420.47;;;1.53;64.77
21828;BME280;11076;47.942;11.804;2023-04-06T21:06:26;94414.34;;;1.45;65.36
21828;BME280;11076;47.942;11.804;2023-04-06T21:11:29;94412.88;;;1.42;66.06
21828;BME280;11076;47.942;11.804;2023-04-06T21:16:31;94415.66;;;1.41;66.24
21828;BME280;11076;47.942;11.804;2023-04-06T21:21:34;94416.13;;;1.28;67.07
21828;BME280;11076;47.942;11.804;2023-04-06T21:26:37;94415.47;;;1.17;67.53
21828;BME280;11076;47.942;11.804;2023-04-06T21:31:39;94412.66;;;1.27;67.80
21828;BME280;11076;47.942;11.804;2023-04-06T21:36:43;94413.31;;;1.29;69.98
21828;BME280;11076;47.942;11.804;2023-04-06T21:41:45;94411.03;;;1.34;69.80
21828;BME280;11076;47.942;11.804;2023-04-06T21:46:47;94412.84;;;1.26;69.97
21828;BME280;11076;47.942;11.804;2023-04-06T21:51:50;94405.09;;;1.16;70.61
21828;BME280;11076;47.942;11.804;2023-04-06T21:56:52;94396.81;;;1.11;71.45
21828;BME280;11076;47.942;11.804;2023-04-06T22:01:55;94403.25;;;1.16;70.99
21828;BME280;11076;47.942;11.804;2023-04-06T22:06:57;94394.81;;;0.96;72.19
21828;BME280;11076;47.942;11.804;2023-04-06T22:12:00;94396.78;;;0.94;72.51
21828;BME280;11076;47.942;11.804;2023-04-06T22:17:02;94392.97;;;0.89;72.62
21828;BME280;11076;47.942;11.804;2023-04-06T22:22:04;94394.59;;;0.82;73.88
21828;BME280;11076;47.942;11.804;2023-04-06T22:27:07;94395.31;;;0.92;72.52
21828;BME280;11076;47.942;11.804;2023-04-06T22:32:10;94386.91;;;0.96;72.17
21828;BME280;11076;47.942;11.804;2023-04-06T22:37:12;94383.91;;;0.83;72.79
21828;BME280;11076;47.942;11.804;2023-04-06T22:42:15;94373.06;;;0.86;72.25
21828;BME280;11076;47.942;11.804;2023-04-06T22:47:17;94379.69;;;0.98;71.96
21828;BME280;11076;47.942;11.804;2023-04-06T22:52:19;94368.50;;;0.96;71.73
21828;BME280;11076;47.942;11.804;2023-04-06T22:57:22;94366.81;;;0.95;71.71
21828;BME280;11076;47.942;11.804;2023-04-06T23:02:24;94358.44;;;0.84;71.87
21828;BME280;11076;47.942;11.804;2023-04-06T23:07:27;94359.88;;;0.70;73.08
21828;BME280;11076;47.942;11.804;2023-04-06T23:12:30;94360.94;;;1.02;72.05
21828;BME280;11076;47.942;11.804;2023-04-06T23:17:32;94358.47;;;1.08;71.86
21828;BME280;11076;47.942;11.804;2023-04-06T23:22:34;94354.69;;;1.19;71.68
21828;BME280;11076;47.942;11.804;2023-04-06T23:27:37;94349.44;;;1.27;70.78
21828;BME280;11076;47.942;11.804;2023-04-06T23:32:39;94345.69;;;1.38;69.88
21828;BME280;11076;47.942;11.804;2023-04-06T23:37:42;94338.28;;;1.33;69.43
21828;BME280;11076;47.942;11.804;2023-04-06T23:42:44;94341.06;;;1.40;69.42
21828;BME280;11076;47.942;11.804;2023-04-06T23:47:46;94336.63;;;1.49;68.56
21828;BME280;11076;47.942;11.804;2023-04-06T23:52:49;94335.63;;;1.66;67.46
21828;BME280;11076;47.942;11.804;2023-04-06T23:57:51;94335.97;;;1.55;67.36
